GALVESTON,TX NM East of Galveston, TX (42035)

Conditions for Wednesday

Daily
Weekly
Monthly
Marine Data Graph

Marine & Boating Location Search

Enter a coastal zip code for marine weather.

General Information

Location: 29.232 -94.413
Buoy Type: 3-meter discus buoy
Buoy Hull: 3DV17
Payload: ARES payload
Owned by: NDBC
Windspeed: Measured by obtained from anemometer
Sea Surface: Measured by Intake

Weather and Wave Data

Time Temp Humidity Wind Dominant Wave Wind Wave Wave Swell Pressure
  Air
(°F)
Water
(°F)
  Dir Speed
(kts)
Speed
(mph)
Period
(sec)
Height
(ft)
Range
(ft)
Period
(sec)
Height
(ft)
Range
(ft)
Period
(sec)
Height
(ft)
Range
(ft)
Atmo.
(in)
Tend.
(in)
20:50 62 62 34 ENE 19.4 22.4 8 4.27 exactly 4.3 5 3.28 2.46 - 4.10 8 1.64 0.82 - 2.46 30.15 +0.01
21:50 61 62 42 ENE 19.4 22.4 5 4.27 exactly 4.3 5 3.28 2.46 - 4.10 8 1.64 0.82 - 2.46 30.17 +0.03
22:50 61 62 43 East 19.4 22.4 5 4.59 exactly 4.6 5 3.28 2.46 - 4.10 8 1.64 0.82 - 2.46 30.14 -0.01
23:50 60 62 50 East 19.4 22.4 5 4.59 exactly 4.6 5 4.92 4.10 - 5.74 11 1.64 0.82 - 2.46 30.14 -0.01
00:50 60 62 55 East 21.4 24.6 5 4.59 exactly 4.6 5 4.92 4.10 - 5.74 - - - 30.11 -0.05
01:50 60 62 54 East 23.3 26.8 5 5.25 exactly 5.2 5 4.92 4.10 - 5.74 11 1.64 0.82 - 2.46 30.08 -0.06
02:50 60 62 54 East 23.3 26.8 5 5.58 exactly 5.6 5 4.92 4.10 - 5.74 8 1.64 0.82 - 2.46 30.06 -0.07
03:50 59 62 57 East 23.3 26.8 5 5.91 exactly 5.9 5 6.56 5.74 - 7.38 12 1.64 0.82 - 2.46 30.07 -0.04
04:50 59 62 58 East 21.4 24.6 6 6.56 exactly 6.6 6 6.56 5.74 - 7.38 - - - 30.08 -
05:50 59 62 58 East 21.4 24.6 6 6.23 exactly 6.2 6 6.56 5.74 - 7.38 - - - 30.10 +0.04
06:50 59 61 58 East 21.4 24.6 6 5.91 exactly 5.9 6 6.56 5.74 - 7.38 - - - 30.10 +0.03
07:50 59 61 59 East 21.4 24.6 6 5.91 exactly 5.9 6 6.56 5.74 - 7.38 - - - 30.11 +0.03
09:50 59 61 68 East 25.3 29.1 6 6.23 exactly 6.2 6 4.92 4.10 - 5.74 12 3.28 2.46 - 4.10 30.06 -0.04
10:50 60 61 70 East 25.3 29.1 7 6.89 exactly 6.9 7 6.56 5.74 - 7.38 13 1.64 0.82 - 2.46 30.04 -0.07
11:50 60 61 76 ESE 25.3 29.1 7 6.89 exactly 6.9 7 6.56 5.74 - 7.38 - - - 30.00 -0.09
13:50 62 62 79 East 21.4 24.6 6 7.87 exactly 7.9 6 8.20 7.38 - 9.02 17 1.64 0.82 - 2.46 29.97 -
14:50 62 62 81 East 19.4 22.4 7 7.87 exactly 7.9 7 8.20 7.38 - 9.02 - - - 29.95 -0.05
15:50 62 62 84 East 21.4 24.6 7 7.22 exactly 7.2 7 6.56 5.74 - 7.38 - - - 29.91 -0.06
16:50 62 62 87 East 21.4 24.6 7 7.87 exactly 7.9 7 8.20 7.38 - 9.02 - - - 29.88 -0.09
17:50 62 62 90 East 23.3 26.8 7 7.55 exactly 7.5 7 8.20 7.38 - 9.02 - - - 29.87 -0.08
18:50 63 62 87 East 23.3 26.8 7 7.55 exactly 7.5 7 8.20 7.38 - 9.02 - - - 29.88 -0.04
19:50 63 62 87 East 25.3 29.1 7 7.87 exactly 7.9 7 8.20 7.38 - 9.02 12 1.64 0.82 - 2.46 29.87 -0.01
20:50 63 62 87 ESE 23.3 26.8 7 8.20 exactly 8.2 7 8.20 7.38 - 9.02 - - - 29.87 -
21:50 63 62 89 ESE 23.3 26.8 7 8.20 exactly 8.2 7 8.20 7.38 - 9.02 - - - 29.87 -0.01
22:50 63 62 92 East 23.3 26.8 8 8.86 exactly 8.9 8 8.20 7.38 - 9.02 - - - 29.85 -0.02
23:50 63 62 94 East 23.3 26.8 8 8.20 exactly 8.2 8 8.20 7.38 - 9.02 12 1.64 0.82 - 2.46 29.81 -0.05
00:50 64 62 95 ESE 21.4 24.6 8 7.87 exactly 7.9 8 8.20 7.38 - 9.02 - - - 29.78 -0.08
01:50 65 62 92 ESE 19.4 22.4 7 7.22 exactly 7.2 7 6.56 5.74 - 7.38 13 1.64 0.82 - 2.46 29.78 -0.07
02:50 65 62 94 ESE 17.5 20.1 8 6.56 exactly 6.6 5 6.56 5.74 - 7.38 8 3.28 2.46 - 4.10 29.75 -0.06
03:50 65 62 96 ESE 13.6 15.7 8 5.91 exactly 5.9 6 4.92 4.10 - 5.74 8 3.28 2.46 - 4.10 29.75 -0.04

Detailed Wave Spectra

Time Water Depth Wave Height Spectral Peak Period Average Wave Period Sampling Interval Wave Record
20:00 141 ft 3.94 ft 4.2 sec 4.2 sec 0.6 sec 2400 sec
21:00 141 ft 4.17 ft 7.7 sec 4.3 sec 0.6 sec 2400 sec
22:00 141 ft 4.33 ft 4.8 sec 4.4 sec 0.6 sec 2400 sec
23:00 141 ft 4.43 ft 5.0 sec 4.4 sec 0.6 sec 2400 sec
00:00 141 ft 4.66 ft 5.0 sec 4.5 sec 0.6 sec 2400 sec
01:00 141 ft 4.66 ft 5.0 sec 4.5 sec 0.6 sec 2400 sec
02:00 141 ft 5.22 ft 5.0 sec 4.3 sec 0.6 sec 2400 sec
03:00 141 ft 5.45 ft 5.3 sec 4.4 sec 0.6 sec 2400 sec
04:00 141 ft 5.87 ft 5.0 sec 4.6 sec 0.6 sec 2400 sec
05:00 141 ft 6.46 ft 5.6 sec 4.8 sec 0.6 sec 2400 sec
07:00 141 ft 5.77 ft 5.9 sec 4.7 sec 0.6 sec 2400 sec
09:00 141 ft 6.07 ft 5.9 sec 4.8 sec 0.6 sec 2400 sec
10:00 141 ft 6.17 ft 6.3 sec 4.7 sec 0.6 sec 2400 sec
11:00 141 ft 6.86 ft 7.1 sec 4.9 sec 0.6 sec 2400 sec
12:00 141 ft 6.96 ft 6.7 sec 4.9 sec 0.6 sec 2400 sec
13:00 141 ft 8.50 ft 7.1 sec 5.3 sec 0.6 sec 2400 sec
14:00 141 ft 7.78 ft 6.3 sec 5.2 sec 0.6 sec 2400 sec
15:00 141 ft 7.94 ft 7.1 sec 5.3 sec 0.6 sec 2400 sec
16:00 141 ft 7.09 ft 7.1 sec 5.1 sec 0.6 sec 2400 sec
17:00 141 ft 7.74 ft 7.1 sec 5.2 sec 0.6 sec 2400 sec
18:00 141 ft 7.68 ft 7.1 sec 5.2 sec 0.6 sec 2400 sec
19:00 141 ft 7.55 ft 6.7 sec 5.2 sec 0.6 sec 2400 sec
20:00 141 ft 7.84 ft 7.1 sec 5.2 sec 0.6 sec 2400 sec
21:00 141 ft 8.10 ft 7.1 sec 5.4 sec 0.6 sec 2400 sec
22:00 141 ft 8.14 ft 7.1 sec 5.3 sec 0.6 sec 2400 sec
23:00 141 ft 8.86 ft 7.7 sec 5.7 sec 0.6 sec 2400 sec
00:00 141 ft 8.14 ft 7.7 sec 5.5 sec 0.6 sec 2400 sec
01:00 141 ft 7.84 ft 7.7 sec 5.4 sec 0.6 sec 2400 sec
03:00 141 ft 6.63 ft 7.7 sec 5.1 sec 0.6 sec 2400 sec